Time;durP1;ratioP1;P1;durP2;ratioP2;P2;SDS_P1;SDS_P2;PMS_P1;PMS_P2;Temp;Humidity;BMP_temperature;BMP_pressure;BME280_temperature;BME280_humidity;BME280_pressure;Samples;Min_cycle;Max_cycle;Signal;HPM_P1;HPM_P2
2023/12/26 00:01:49;;;;;;;;;;;;;;;11.81;81.42;100018.44;5071076;28;19928;-71
2023/12/26 00:04:52;;;;;;;;;;;;;;;11.75;81.26;100013.59;5063467;28;20449;-71
2023/12/26 00:07:56;;;;;;;;;;;;;;;11.67;81.31;100013.25;5065545;28;19919;-71
2023/12/26 00:11:00;;;;;;;;;;;;;;;11.69;81.87;100014.81;5065125;28;19934;-71
2023/12/26 00:14:03;;;;;;;;;;;;;;;11.73;81.40;100021.53;5068741;28;19938;-71
2023/12/26 00:17:07;;;;;;;;;;;;;;;11.68;81.30;100007.91;5063681;28;19919;-71
2023/12/26 00:20:12;;;;;;;;;;;;;;;11.83;81.38;100001.66;5062143;28;19958;-70
2023/12/26 00:23:15;;;;;;;;;;;;;;;11.82;80.47;99999.97;5064289;28;19924;-69
2023/12/26 00:26:19;;;;;;;;;;;;;;;11.88;80.29;100006.63;5068987;28;20058;-69
2023/12/26 00:29:25;;;;;;;;;;;;;;;11.91;80.21;99995.13;5063820;28;19965;-69
2023/12/26 00:32:28;;;;;;;;;;;;;;;11.86;79.49;99996.25;5069672;28;19958;-69
2023/12/26 00:35:31;;;;;;;;;;;;;;;11.96;79.92;100000.88;5062066;28;19920;-69
2023/12/26 00:38:35;;;;;;;;;;;;;;;12.06;79.45;99986.22;5062394;28;19918;-69
2023/12/26 00:41:38;;;;;;;;;;;;;;;11.99;78.42;100001.50;5058204;28;19924;-69
2023/12/26 00:44:42;;;;;;;;;;;;;;;11.79;78.56;100007.22;5061330;28;20137;-69
2023/12/26 00:47:45;;;;;;;;;;;;;;;11.66;79.62;99999.31;5062835;28;19919;-69
2023/12/26 00:50:49;;;;;;;;;;;;;;;11.60;79.15;100010.19;5062823;28;20283;-69
2023/12/26 00:53:52;;;;;;;;;;;;;;;11.52;79.27;99987.13;5064138;28;20411;-70
2023/12/26 00:56:55;;;;;;;;;;;;;;;11.47;79.45;99999.66;5062165;28;19919;-70
2023/12/26 00:59:59;;;;;;;;;;;;;;;11.36;80.13;99997.75;5053798;28;20018;-70
2023/12/26 01:03:02;;;;;;;;;;;;;;;11.54;80.38;100007.97;5071189;28;20300;-69
2023/12/26 01:06:06;;;;;;;;;;;;;;;11.56;79.23;100019.19;5065841;28;19919;-69
2023/12/26 01:09:10;;;;;;;;;;;;;;;11.44;79.42;100004.25;5063658;28;19966;-70
2023/12/26 01:12:13;;;;;;;;;;;;;;;11.33;79.57;100008.41;5064052;28;20411;-70
2023/12/26 01:15:16;;;;;;;;;;;;;;;11.33;79.79;100008.41;5060713;28;19919;-70
2023/12/26 01:18:20;;;;;;;;;;;;;;;11.37;80.03;99996.78;5069698;28;19966;-70
2023/12/26 01:21:24;;;;;;;;;;;;;;;11.40;79.63;100008.84;5063419;28;20010;-70
2023/12/26 01:24:27;;;;;;;;;;;;;;;11.31;79.71;100002.41;5072273;28;19954;-70
2023/12/26 01:27:31;;;;;;;;;;;;;;;11.30;79.48;100007.75;5060694;28;19965;-70
2023/12/26 01:30:35;;;;;;;;;;;;;;;11.31;79.20;100015.50;5064025;28;19923;-70
2023/12/26 01:33:38;;;;;;;;;;;;;;;11.29;79.32;100012.13;5059790;28;19936;-70
2023/12/26 01:36:41;;;;;;;;;;;;;;;11.32;79.31;100030.25;5062156;28;19920;-70
2023/12/26 01:39:45;;;;;;;;;;;;;;;11.40;78.88;100009.69;5061830;28;20414;-71
2023/12/26 01:42:48;;;;;;;;;;;;;;;11.46;78.65;100012.88;5069092;28;19923;-71
2023/12/26 01:45:54;;;;;;;;;;;;;;;11.36;77.95;100017.84;5064318;28;20384;-70
2023/12/26 01:48:57;;;;;;;;;;;;;;;11.29;77.55;100014.75;5060717;28;20122;-70
2023/12/26 01:52:00;;;;;;;;;;;;;;;11.27;77.50;100018.44;5063683;28;19919;-70
2023/12/26 01:55:04;;;;;;;;;;;;;;;11.27;77.14;100019.25;5067574;28;19966;-70
2023/12/26 01:58:07;;;;;;;;;;;;;;;11.16;77.86;100026.94;5072380;28;20022;-70
2023/12/26 02:01:12;;;;;;;;;;;;;;;11.13;77.82;100035.81;5058287;28;19923;-69
2023/12/26 02:04:15;;;;;;;;;;;;;;;11.11;78.12;100073.50;5063116;28;19922;-70
2023/12/26 02:07:18;;;;;;;;;;;;;;;10.87;79.62;100057.50;5060656;28;19965;-70
2023/12/26 02:10:22;;;;;;;;;;;;;;;10.75;80.74;100045.16;5063309;28;19970;-70
2023/12/26 02:13:25;;;;;;;;;;;;;;;10.84;81.13;100071.59;5063543;28;19958;-70
2023/12/26 02:16:29;;;;;;;;;;;;;;;10.73;79.71;100040.06;5061005;28;20391;-70
2023/12/26 02:19:39;;;;;;;;;;;;;;;10.73;79.32;100039.22;5064229;28;20387;-70
2023/12/26 02:22:45;;;;;;;;;;;;;;;10.71;78.68;100026.22;5062977;28;19919;-70
2023/12/26 02:25:50;;;;;;;;;;;;;;;10.68;78.33;100031.63;5061560;28;19931;-70
2023/12/26 02:28:53;;;;;;;;;;;;;;;10.75;77.99;100027.69;5070136;28;19935;-71
2023/12/26 02:31:58;;;;;;;;;;;;;;;10.73;77.07;100029.59;5060670;28;20264;-71
2023/12/26 02:35:04;;;;;;;;;;;;;;;10.80;77.08;100023.03;5064501;28;19919;-71
2023/12/26 02:38:08;;;;;;;;;;;;;;;10.75;75.81;100035.56;5064428;28;20359;-71
2023/12/26 02:41:11;;;;;;;;;;;;;;;10.69;75.33;100030.72;5064583;28;19923;-70
2023/12/26 02:44:16;;;;;;;;;;;;;;;10.69;75.63;100038.56;5060199;28;19958;-70
2023/12/26 02:47:19;;;;;;;;;;;;;;;10.60;75.23;100024.25;5063374;28;19919;-70
2023/12/26 02:50:23;;;;;;;;;;;;;;;10.66;75.46;100033.53;5063830;28;19919;-70
2023/12/26 02:53:27;;;;;;;;;;;;;;;10.70;75.24;100014.09;5061556;28;19919;-70
2023/12/26 02:56:31;;;;;;;;;;;;;;;10.60;75.60;100020.81;5060379;28;19926;-70
2023/12/26 02:59:34;;;;;;;;;;;;;;;10.65;75.81;100016.97;5060112;28;19939;-70
2023/12/26 03:02:37;;;;;;;;;;;;;;;10.73;75.75;100016.50;5066107;28;19939;-70
2023/12/26 03:05:41;;;;;;;;;;;;;;;10.69;75.33;100020.25;5060347;28;19991;-70
2023/12/26 03:08:44;;;;;;;;;;;;;;;10.61;75.50;100022.50;5061576;28;20023;-70
2023/12/26 03:11:48;;;;;;;;;;;;;;;10.58;76.20;100014.81;5064148;28;19938;-70
2023/12/26 03:14:51;;;;;;;;;;;;;;;10.60;76.04;100024.25;5070133;28;19955;-70
2023/12/26 03:17:55;;;;;;;;;;;;;;;10.62;75.57;100032.00;5063116;28;20009;-70
2023/12/26 03:20:58;;;;;;;;;;;;;;;10.71;75.69;100027.06;5067603;28;20015;-70
2023/12/26 03:24:01;;;;;;;;;;;;;;;10.70;75.22;100028.00;5064249;28;19927;-70
2023/12/26 03:27:06;;;;;;;;;;;;;;;10.68;75.83;100015.94;5066465;28;20348;-70
2023/12/26 03:30:09;;;;;;;;;;;;;;;10.75;75.35;100019.03;5066346;28;19962;-70
2023/12/26 03:33:12;;;;;;;;;;;;;;;10.78;74.93;100016.22;5070829;28;20030;-70
2023/12/26 03:36:15;;;;;;;;;;;;;;;10.68;75.49;100029.03;5075126;28;19919;-70
2023/12/26 03:39:19;;;;;;;;;;;;;;;10.71;75.81;100018.38;5064240;28;19962;-70
2023/12/26 03:42:22;;;;;;;;;;;;;;;10.57;76.01;100032.28;5063560;28;19919;-70
2023/12/26 03:45:28;;;;;;;;;;;;;;;10.48;76.71;100031.06;5049699;28;20291;-70
2023/12/26 03:48:32;;;;;;;;;;;;;;;10.54;76.65;100029.03;5065343;28;20353;-70
2023/12/26 03:51:35;;;;;;;;;;;;;;;10.54;77.05;100023.78;5064652;28;19919;-70
2023/12/26 03:54:40;;;;;;;;;;;;;;;10.54;77.11;100026.41;5066432;28;20322;-70
2023/12/26 03:57:43;;;;;;;;;;;;;;;10.52;76.98;100034.31;5066383;28;19962;-70
2023/12/26 04:00:46;;;;;;;;;;;;;;;10.60;76.90;100024.25;5066612;28;19943;-70
2023/12/26 04:03:50;;;;;;;;;;;;;;;10.59;77.21;100021.72;5058559;28;19920;-70
2023/12/26 04:06:53;;;;;;;;;;;;;;;10.65;77.37;100030.03;5066536;28;20007;-70
2023/12/26 04:09:57;;;;;;;;;;;;;;;10.58;77.85;100027.91;5063335;28;19990;-70
2023/12/26 04:13:00;;;;;;;;;;;;;;;10.48;77.99;100046.75;5063796;28;19927;-70
2023/12/26 04:16:04;;;;;;;;;;;;;;;10.52;78.45;100051.78;5060600;28;19924;-70
2023/12/26 04:19:07;;;;;;;;;;;;;;;10.58;78.50;100052.25;5065044;28;19923;-70
2023/12/26 04:22:10;;;;;;;;;;;;;;;10.56;78.43;100048.91;5067227;28;20369;-70
2023/12/26 04:25:14;;;;;;;;;;;;;;;10.51;78.57;100084.94;5064582;28;19958;-70
2023/12/26 04:28:17;;;;;;;;;;;;;;;10.50;78.84;100069.31;5067429;28;19993;-71
2023/12/26 04:31:21;;;;;;;;;;;;;;;10.38;79.71;100066.53;5062455;28;19919;-70
2023/12/26 04:34:24;;;;;;;;;;;;;;;10.44;79.92;100070.56;5062088;28;20406;-70
2023/12/26 04:37:27;;;;;;;;;;;;;;;10.48;79.56;100062.44;5063679;28;20043;-71
2023/12/26 04:40:31;;;;;;;;;;;;;;;10.48;79.46;100072.03;5063906;28;19923;-70
2023/12/26 04:43:34;;;;;;;;;;;;;;;10.54;79.79;100060.41;5058448;28;19943;-70
2023/12/26 04:46:37;;;;;;;;;;;;;;;10.61;79.26;100059.09;5072581;28;19919;-70
2023/12/26 04:49:40;;;;;;;;;;;;;;;10.68;79.23;100049.94;5063246;28;19919;-70
2023/12/26 04:52:45;;;;;;;;;;;;;;;10.78;78.61;100078.97;5060110;28;19923;-70
2023/12/26 04:55:48;;;;;;;;;;;;;;;10.75;78.78;100073.94;5061918;28;19954;-70
2023/12/26 04:58:52;;;;;;;;;;;;;;;10.75;78.81;100048.63;5063619;28;19923;-70
2023/12/26 05:01:55;;;;;;;;;;;;;;;10.78;78.94;100064.13;5060344;28;19923;-70
2023/12/26 05:04:59;;;;;;;;;;;;;;;10.80;78.82;100062.28;5060512;28;19919;-70
2023/12/26 05:08:02;;;;;;;;;;;;;;;10.77;78.80;100067.69;5061456;28;20275;-70
2023/12/26 05:11:06;;;;;;;;;;;;;;;10.75;78.70;100056.47;5062693;28;19920;-70
2023/12/26 05:14:09;;;;;;;;;;;;;;;10.74;79.03;100078.34;5063046;28;20390;-70
2023/12/26 05:17:14;;;;;;;;;;;;;;;10.70;78.80;100084.69;5062104;28;19919;-70
2023/12/26 05:20:18;;;;;;;;;;;;;;;10.71;79.19;100081.13;5064666;28;19919;-70
2023/12/26 05:23:21;;;;;;;;;;;;;;;10.80;79.27;100075.34;5057379;28;19924;-70
2023/12/26 05:26:25;;;;;;;;;;;;;;;10.81;78.79;100084.88;5065975;28;19965;-70
2023/12/26 05:29:28;;;;;;;;;;;;;;;10.77;78.84;100083.38;5065017;28;20398;-70
2023/12/26 05:32:31;;;;;;;;;;;;;;;10.73;78.85;100089.75;5059728;28;19920;-70
2023/12/26 05:35:35;;;;;;;;;;;;;;;10.68;79.00;100079.53;5056351;28;19974;-71
2023/12/26 05:38:38;;;;;;;;;;;;;;;10.69;79.08;100073.41;5056857;28;19938;-71
2023/12/26 05:41:42;;;;;;;;;;;;;;;10.78;79.07;100090.28;5063008;28;20427;-71
2023/12/26 05:44:46;;;;;;;;;;;;;;;10.72;78.86;100093.28;5059163;28;20042;-71
2023/12/26 05:47:49;;;;;;;;;;;;;;;10.76;78.88;100104.41;5061638;28;20013;-70
2023/12/26 05:50:54;;;;;;;;;;;;;;;10.78;79.01;100111.22;5065080;28;20337;-71
2023/12/26 05:53:57;;;;;;;;;;;;;;;10.78;78.92;100110.38;5064683;28;20171;-71
2023/12/26 05:57:01;;;;;;;;;;;;;;;10.84;78.89;100121.31;5060693;28;19919;-70
2023/12/26 06:00:04;;;;;;;;;;;;;;;10.84;78.61;100126.53;5055359;28;19977;-70
2023/12/26 06:03:08;;;;;;;;;;;;;;;10.82;78.50;100123.19;5051341;28;20369;-70
2023/12/26 06:06:12;;;;;;;;;;;;;;;10.79;78.56;100128.59;5059118;28;20375;-70
2023/12/26 06:09:16;;;;;;;;;;;;;;;10.82;78.43;100143.28;5066101;28;19936;-70
2023/12/26 06:12:19;;;;;;;;;;;;;;;10.82;78.52;100144.09;5064667;28;19971;-70
2023/12/26 06:15:23;;;;;;;;;;;;;;;10.81;78.33;100150.25;5052439;28;19965;-70
2023/12/26 06:18:27;;;;;;;;;;;;;;;10.89;78.62;100160.28;5062269;28;19919;-70
2023/12/26 06:21:30;;;;;;;;;;;;;;;10.94;77.89;100150.38;5061887;28;19923;-71
2023/12/26 06:24:33;;;;;;;;;;;;;;;10.86;77.86;100184.00;5061106;28;19923;-70
2023/12/26 06:27:37;;;;;;;;;;;;;;;10.88;78.10;100166.41;5062054;28;19920;-70
2023/12/26 06:30:43;;;;;;;;;;;;;;;10.86;78.18;100158.69;5060344;28;19919;-71
2023/12/26 06:33:47;;;;;;;;;;;;;;;10.94;78.21;100168.69;5056996;28;19920;-70
2023/12/26 06:36:51;;;;;;;;;;;;;;;10.97;77.89;100189.41;5061462;28;19920;-70
2023/12/26 06:39:54;;;;;;;;;;;;;;;10.91;77.99;100195.88;5029809;28;20014;-70
2023/12/26 06:42:57;;;;;;;;;;;;;;;10.85;78.13;100196.25;5045364;28;20335;-70
2023/12/26 06:46:02;;;;;;;;;;;;;;;10.88;78.57;100201.28;5058400;28;19967;-70
2023/12/26 06:49:05;;;;;;;;;;;;;;;10.90;78.33;100207.25;5060555;28;19919;-70
2023/12/26 06:52:09;;;;;;;;;;;;;;;10.89;78.47;100199.50;5058120;28;19919;-70
2023/12/26 06:55:12;;;;;;;;;;;;;;;10.98;78.45;100206.00;5063791;28;19918;-70
2023/12/26 06:58:16;;;;;;;;;;;;;;;11.00;78.11;100201.50;5061695;28;19924;-70
2023/12/26 07:01:19;;;;;;;;;;;;;;;10.91;77.85;100216.81;5069348;28;19924;-70
2023/12/26 07:04:23;;;;;;;;;;;;;;;10.93;78.06;100225.38;5065950;28;19919;-70
2023/12/26 07:07:26;;;;;;;;;;;;;;;10.97;78.42;100225.22;5063016;28;19919;-70
2023/12/26 07:10:32;;;;;;;;;;;;;;;10.94;78.37;100223.59;5064505;28;19961;-70
2023/12/26 07:13:36;;;;;;;;;;;;;;;10.92;78.20;100218.47;5056464;28;19954;-70
2023/12/26 07:16:40;;;;;;;;;;;;;;;10.86;78.70;100223.22;5064631;28;19920;-70
2023/12/26 07:19:43;;;;;;;;;;;;;;;10.84;78.59;100241.63;5062168;28;19960;-70
2023/12/26 07:22:46;;;;;;;;;;;;;;;10.92;78.82;100260.34;5064307;28;20327;-70
2023/12/26 07:25:50;;;;;;;;;;;;;;;10.90;78.80;100263.97;5067417;28;20385;-70
2023/12/26 07:28:53;;;;;;;;;;;;;;;10.88;78.94;100269.31;5067147;28;20016;-70
2023/12/26 07:31:56;;;;;;;;;;;;;;;10.83;79.15;100260.88;5050937;28;19923;-70
2023/12/26 07:35:00;;;;;;;;;;;;;;;10.78;79.43;100260.28;5061055;28;19919;-69
2023/12/26 07:38:04;;;;;;;;;;;;;;;10.82;79.58;100289.75;5053619;28;19923;-70
2023/12/26 07:41:08;;;;;;;;;;;;;;;10.81;79.70;100283.63;5066934;28;19923;-70
2023/12/26 07:44:11;;;;;;;;;;;;;;;10.72;81.68;100294.66;5060248;28;19919;-70
2023/12/26 07:47:15;;;;;;;;;;;;;;;10.79;82.45;100306.44;5050466;28;20399;-70
2023/12/26 07:50:18;;;;;;;;;;;;;;;10.78;82.63;100312.56;5063926;28;20387;-70
2023/12/26 07:53:21;;;;;;;;;;;;;;;10.87;82.62;100319.91;5062757;28;19935;-70
2023/12/26 07:56:25;;;;;;;;;;;;;;;10.86;82.80;100317.41;5064116;28;19966;-70
2023/12/26 07:59:28;;;;;;;;;;;;;;;10.76;82.97;100311.84;5061418;28;20333;-69
2023/12/26 08:02:32;;;;;;;;;;;;;;;10.79;83.15;100316.06;5059945;28;20050;-69
2023/12/26 08:05:38;;;;;;;;;;;;;;;10.85;83.17;100327.03;5063820;28;20099;-69
2023/12/26 08:08:41;;;;;;;;;;;;;;;10.82;82.73;100336.81;5065105;28;19919;-69
2023/12/26 08:11:44;;;;;;;;;;;;;;;10.79;82.79;100350.06;5068535;28;19919;-70
2023/12/26 08:14:50;;;;;;;;;;;;;;;10.59;84.16;100336.31;5065314;28;19919;-79
2023/12/26 08:17:54;;;;;;;;;;;;;;;10.43;85.19;100344.16;5062317;28;19924;-79
2023/12/26 08:20:57;;;;;;;;;;;;;;;10.39;85.80;100363.53;5062805;28;20354;-80
2023/12/26 08:24:00;;;;;;;;;;;;;;;10.31;87.87;100368.34;5063743;28;19998;-78
2023/12/26 08:27:05;;;;;;;;;;;;;;;10.34;88.67;100367.31;5060716;28;20383;-81
2023/12/26 08:30:09;;;;;;;;;;;;;;;10.28;89.32;100378.13;5061811;28;19967;-82
2023/12/26 08:33:14;;;;;;;;;;;;;;;10.24;89.35;100385.22;5072392;28;20428;-80
2023/12/26 08:36:18;;;;;;;;;;;;;;;10.32;89.40;100379.63;5062256;28;19918;-81
2023/12/26 08:39:22;;;;;;;;;;;;;;;10.37;89.26;100394.16;5064345;28;19923;-80
2023/12/26 08:42:25;;;;;;;;;;;;;;;10.45;89.14;100397.19;5062787;28;19919;-79
2023/12/26 08:45:32;;;;;;;;;;;;;;;10.46;88.34;100401.50;5051476;28;19923;-85
2023/12/26 08:49:31;;;;;;;;;;;;;;;10.47;88.74;100420.66;5059172;28;20009;-84
2023/12/26 08:52:35;;;;;;;;;;;;;;;10.37;88.18;100435.97;5042215;28;19963;-85
2023/12/26 08:55:45;;;;;;;;;;;;;;;10.29;89.92;100416.38;5058290;28;19918;-84
2023/12/26 09:02:54;;;;;;;;;;;;;;;10.23;91.34;100451.50;4988668;28;19963;-85
2023/12/26 09:06:21;;;;;;;;;;;;;;;10.34;90.55;100453.56;5080050;28;19919;-84
2023/12/26 09:09:52;;;;;;;;;;;;;;;10.38;90.17;100458.56;5064093;28;19919;-85
2023/12/26 09:14:21;;;;;;;;;;;;;;;10.50;89.53;100464.94;5084471;28;20322;-84
2023/12/26 09:18:58;;;;;;;;;;;;;;;10.62;89.35;100471.25;5054130;28;20361;-83
2023/12/26 09:24:02;;;;;;;;;;;;;;;10.66;87.36;100455.34;5074346;28;19978;-85
2023/12/26 09:27:04;;;;;;;;;;;;;;;10.70;87.38;100466.47;5089615;28;19919;-84
2023/12/26 09:30:17;;;;;;;;;;;;;;;10.73;86.84;100478.53;5076415;28;20434;-83
2023/12/26 09:34:05;;;;;;;;;;;;;;;10.82;86.50;100473.66;5075657;28;19937;-84
2023/12/26 09:38:03;;;;;;;;;;;;;;;10.82;85.03;100488.53;5069884;28;21378;-84
2023/12/26 09:41:52;;;;;;;;;;;;;;;10.74;84.08;100496.75;5060910;28;19923;-83
2023/12/26 09:45:00;;;;;;;;;;;;;;;10.66;82.40;100497.19;5085237;28;19966;-83
2023/12/26 09:48:39;;;;;;;;;;;;;;;10.68;83.28;100489.22;5089444;28;20291;-84
2023/12/26 09:51:45;;;;;;;;;;;;;;;10.75;83.18;100508.91;5093153;28;20030;-82
2023/12/26 09:54:49;;;;;;;;;;;;;;;10.74;82.54;100496.75;5087442;28;20008;-85
2023/12/26 09:57:57;;;;;;;;;;;;;;;10.75;82.32;100511.50;5092655;28;19927;-80
2023/12/26 10:01:03;;;;;;;;;;;;;;;10.78;81.99;100518.34;5093822;28;19922;-79
2023/12/26 10:04:07;;;;;;;;;;;;;;;10.75;82.32;100539.44;5092247;28;19957;-84
2023/12/26 10:07:14;;;;;;;;;;;;;;;10.84;82.23;100526.72;5093507;28;19919;-84
2023/12/26 10:10:22;;;;;;;;;;;;;;;10.79;81.72;100531.38;5081452;28;20020;-83
2023/12/26 10:13:41;;;;;;;;;;;;;;;10.78;81.99;100529.66;5082894;28;19919;-78
2023/12/26 10:16:47;;;;;;;;;;;;;;;10.75;80.65;100528.97;5092552;28;19927;-78
2023/12/26 10:19:50;;;;;;;;;;;;;;;10.76;81.06;100542.00;5103777;28;19922;-75
2023/12/26 10:22:54;;;;;;;;;;;;;;;10.73;79.53;100536.91;5107398;28;19923;-77
2023/12/26 10:25:57;;;;;;;;;;;;;;;10.76;80.07;100560.31;5092021;28;19919;-77
2023/12/26 10:29:01;;;;;;;;;;;;;;;10.73;79.31;100547.38;5076251;28;19919;-73
2023/12/26 10:32:04;;;;;;;;;;;;;;;10.74;78.54;100543.00;5076409;28;19969;-78
2023/12/26 10:35:11;;;;;;;;;;;;;;;10.78;78.15;100555.81;5092299;28;19919;-78
2023/12/26 10:38:15;;;;;;;;;;;;;;;10.81;77.23;100555.66;5104321;28;20018;-79
2023/12/26 10:41:24;;;;;;;;;;;;;;;10.73;76.76;100557.84;5095887;28;19973;-77
2023/12/26 10:44:28;;;;;;;;;;;;;;;10.76;76.29;100557.69;5096029;28;19919;-75
2023/12/26 10:47:32;;;;;;;;;;;;;;;10.75;75.18;100565.59;5095759;28;19919;-77
2023/12/26 10:50:37;;;;;;;;;;;;;;;10.80;75.83;100563.59;5095105;28;19919;-82
2023/12/26 10:53:54;;;;;;;;;;;;;;;10.84;74.95;100555.50;5083666;28;20401;-72
2023/12/26 10:56:59;;;;;;;;;;;;;;;10.76;75.24;100572.53;5072076;28;20373;-77
2023/12/26 11:00:03;;;;;;;;;;;;;;;10.73;74.85;100562.22;5089886;28;19926;-77
2023/12/26 11:03:06;;;;;;;;;;;;;;;10.77;74.61;100546.28;5095198;28;20010;-76
2023/12/26 11:06:10;;;;;;;;;;;;;;;10.81;74.02;100550.41;5095354;28;19973;-76
2023/12/26 11:09:13;;;;;;;;;;;;;;;10.79;73.12;100544.44;5095384;28;19927;-76
2023/12/26 11:12:16;;;;;;;;;;;;;;;10.87;71.88;100551.88;5089618;28;19938;-72
2023/12/26 11:15:20;;;;;;;;;;;;;;;11.01;72.65;100538.03;5084943;28;20402;-77
2023/12/26 11:18:23;;;;;;;;;;;;;;;11.13;71.98;100550.47;5098277;28;19966;-73
2023/12/26 11:21:29;;;;;;;;;;;;;;;11.03;71.21;100538.81;5095175;28;20402;-72
2023/12/26 11:24:32;;;;;;;;;;;;;;;11.05;69.82;100563.97;5094950;28;19919;-71
2023/12/26 11:27:36;;;;;;;;;;;;;;;11.14;70.00;100560.03;5107427;28;20409;-72
2023/12/26 11:30:40;;;;;;;;;;;;;;;11.12;68.75;100547.00;5097115;28;19919;-71
2023/12/26 11:33:43;;;;;;;;;;;;;;;11.21;68.85;100553.53;5084668;28;19981;-72
2023/12/26 11:36:47;;;;;;;;;;;;;;;11.11;67.69;100563.66;5092550;28;19923;-73
2023/12/26 11:39:50;;;;;;;;;;;;;;;11.12;68.19;100567.13;5092204;28;19927;-72
2023/12/26 11:42:55;;;;;;;;;;;;;;;11.03;68.05;100559.75;5093695;28;20107;-74
2023/12/26 11:45:58;;;;;;;;;;;;;;;10.93;68.44;100555.00;5095539;28;19922;-72
2023/12/26 11:49:01;;;;;;;;;;;;;;;10.99;68.83;100563.47;5095099;28;19992;-72
2023/12/26 11:52:05;;;;;;;;;;;;;;;11.03;69.11;100564.97;5096685;28;19923;-72
2023/12/26 11:55:08;;;;;;;;;;;;;;;11.17;68.61;100563.31;5092613;28;19965;-72
2023/12/26 11:58:11;;;;;;;;;;;;;;;11.32;67.66;100566.88;5096357;28;19999;-72
2023/12/26 12:01:15;;;;;;;;;;;;;;;11.26;67.17;100575.03;5094318;28;20359;-79
2023/12/26 12:04:20;;;;;;;;;;;;;;;11.17;66.69;100578.19;5094846;28;19919;-74
2023/12/26 12:07:23;;;;;;;;;;;;;;;11.13;65.84;100581.88;5094795;28;20002;-72
2023/12/26 12:10:26;;;;;;;;;;;;;;;11.11;65.28;100588.97;5094104;28;19993;-71
2023/12/26 12:13:29;;;;;;;;;;;;;;;11.14;65.26;100592.28;5092623;28;19935;-72
2023/12/26 12:16:32;;;;;;;;;;;;;;;11.12;64.21;100585.44;5091743;28;20362;-71
2023/12/26 12:19:36;;;;;;;;;;;;;;;11.12;64.49;100588.88;5094311;28;19927;-72
2023/12/26 12:22:40;;;;;;;;;;;;;;;11.17;63.21;100588.66;5090052;28;19961;-71
2023/12/26 12:25:43;;;;;;;;;;;;;;;11.11;62.46;100589.81;5094340;28;19927;-72
2023/12/26 12:29:01;;;;;;;;;;;;;;;11.07;62.79;100584.81;5093980;28;20294;-72
2023/12/26 12:32:17;;;;;;;;;;;;;;;11.05;62.48;100576.22;5093568;28;20429;-71
2023/12/26 12:35:21;;;;;;;;;;;;;;;11.06;62.21;100580.53;5090632;28;19922;-71
2023/12/26 12:38:26;;;;;;;;;;;;;;;11.11;62.01;100591.59;5091400;28;19919;-71
2023/12/26 12:41:33;;;;;;;;;;;;;;;11.22;61.54;100596.25;5092050;28;19923;-71
2023/12/26 12:44:36;;;;;;;;;;;;;;;11.23;60.26;100595.31;5093400;28;19986;-71
2023/12/26 12:47:39;;;;;;;;;;;;;;;11.32;60.38;100621.84;5090288;28;19923;-71
2023/12/26 12:50:42;;;;;;;;;;;;;;;11.28;59.74;100612.47;5090692;28;19942;-70
2023/12/26 12:53:45;;;;;;;;;;;;;;;11.18;60.17;100606.88;5091316;28;19937;-70
2023/12/26 12:56:48;;;;;;;;;;;;;;;11.34;59.60;100612.13;5093146;28;19923;-70
2023/12/26 12:59:52;;;;;;;;;;;;;;;11.29;59.21;100616.75;5093006;28;19942;-71
2023/12/26 13:02:56;;;;;;;;;;;;;;;11.21;59.23;100600.66;5092688;28;19942;-70
2023/12/26 13:06:00;;;;;;;;;;;;;;;11.29;59.80;100611.53;5093212;28;19942;-70
2023/12/26 13:09:03;;;;;;;;;;;;;;;11.23;58.74;100604.03;5080698;28;20379;-70
2023/12/26 13:12:06;;;;;;;;;;;;;;;11.22;59.09;100615.41;5092467;28;20293;-71
2023/12/26 13:15:10;;;;;;;;;;;;;;;11.22;59.01;100611.94;5093964;28;19934;-71
2023/12/26 13:18:13;;;;;;;;;;;;;;;11.09;59.29;100614.38;5079966;28;19919;-70
2023/12/26 13:21:16;;;;;;;;;;;;;;;11.09;59.37;100607.38;5081786;28;20052;-71
2023/12/26 13:24:22;;;;;;;;;;;;;;;11.06;59.89;100619.78;5093730;28;20354;-71
2023/12/26 13:27:25;;;;;;;;;;;;;;;11.06;60.00;100627.63;5098323;28;19923;-70
2023/12/26 13:30:28;;;;;;;;;;;;;;;11.15;60.90;100632.38;5079791;28;19956;-71
2023/12/26 13:33:35;;;;;;;;;;;;;;;11.14;60.49;100633.31;5101289;28;20424;-70
2023/12/26 13:36:39;;;;;;;;;;;;;;;11.25;61.13;100638.81;5081833;28;19919;-71
2023/12/26 13:39:46;;;;;;;;;;;;;;;11.56;61.08;100639.78;5094318;28;20275;-71
2023/12/26 13:42:49;;;;;;;;;;;;;;;11.75;60.47;100647.47;5092692;28;19957;-71
2023/12/26 13:45:52;;;;;;;;;;;;;;;11.92;60.34;100650.03;5089970;28;19918;-71
2023/12/26 13:48:55;;;;;;;;;;;;;;;11.80;59.54;100648.88;5093292;28;19938;-71
2023/12/26 13:51:58;;;;;;;;;;;;;;;12.00;60.09;100657.47;5093710;28;19927;-71
2023/12/26 13:55:00;;;;;;;;;;;;;;;12.09;59.88;100651.69;5093699;28;19919;-71
2023/12/26 13:58:04;;;;;;;;;;;;;;;12.17;59.51;100662.59;5091054;28;19926;-71
2023/12/26 14:01:07;;;;;;;;;;;;;;;12.03;59.42;100663.38;5091784;28;19941;-71
2023/12/26 14:04:10;;;;;;;;;;;;;;;12.02;59.63;100671.31;5096779;28;20440;-71
2023/12/26 14:07:13;;;;;;;;;;;;;;;11.97;60.01;100674.22;5092960;28;20328;-70
2023/12/26 14:10:16;;;;;;;;;;;;;;;11.93;59.84;100677.91;5091741;28;19919;-70
2023/12/26 14:13:19;;;;;;;;;;;;;;;11.92;59.83;100673.59;5094728;28;19989;-72
2023/12/26 14:16:23;;;;;;;;;;;;;;;12.10;60.25;100675.22;5092466;28;19965;-71
2023/12/26 14:19:26;;;;;;;;;;;;;;;12.12;59.85;100682.97;5094194;28;19919;-73
2023/12/26 14:22:29;;;;;;;;;;;;;;;11.97;60.31;100686.47;5093430;28;20283;-71
2023/12/26 14:25:33;;;;;;;;;;;;;;;12.03;60.99;100688.75;5094609;28;20049;-70
2023/12/26 14:28:36;;;;;;;;;;;;;;;12.05;60.85;100689.50;5089934;28;19965;-69
2023/12/26 14:31:39;;;;;;;;;;;;;;;11.83;60.16;100697.66;5091910;28;19964;-70
2023/12/26 14:34:42;;;;;;;;;;;;;;;11.72;61.39;100690.41;5093548;28;20391;-69
2023/12/26 14:37:45;;;;;;;;;;;;;;;11.82;61.09;100701.22;5094021;28;19934;-69
2023/12/26 14:40:48;;;;;;;;;;;;;;;11.93;61.23;100698.88;5091360;28;19923;-69
2023/12/26 14:43:54;;;;;;;;;;;;;;;12.08;61.32;100710.28;5079378;28;20305;-69
2023/12/26 14:46:57;;;;;;;;;;;;;;;12.05;60.91;100708.69;5092522;28;19973;-69
2023/12/26 14:50:00;;;;;;;;;;;;;;;12.17;61.76;100715.03;5092504;28;19918;-70
2023/12/26 14:53:04;;;;;;;;;;;;;;;12.10;61.30;100716.31;5091009;28;19919;-70
2023/12/26 14:56:07;;;;;;;;;;;;;;;12.10;62.07;100721.56;5091093;28;20341;-71
2023/12/26 14:59:11;;;;;;;;;;;;;;;11.64;61.08;100721.38;5092275;28;20021;-71
2023/12/26 15:02:14;;;;;;;;;;;;;;;11.70;61.03;100734.16;5091057;28;19939;-72
2023/12/26 15:05:18;;;;;;;;;;;;;;;11.69;61.05;100742.94;5088345;28;20424;-72
2023/12/26 15:08:22;;;;;;;;;;;;;;;11.67;60.83;100738.72;5080049;28;19919;-73
2023/12/26 15:11:27;;;;;;;;;;;;;;;11.36;60.55;100737.72;5092427;28;19919;-72
2023/12/26 15:14:31;;;;;;;;;;;;;;;11.24;60.09;100739.22;5093559;28;19972;-72
2023/12/26 15:17:38;;;;;;;;;;;;;;;11.10;60.39;100752.13;5094460;28;19923;-72
2023/12/26 15:20:41;;;;;;;;;;;;;;;11.26;60.84;100760.06;5092952;28;19922;-73
2023/12/26 15:23:49;;;;;;;;;;;;;;;10.88;60.03;100765.44;5095064;28;19919;-72
2023/12/26 15:26:52;;;;;;;;;;;;;;;10.88;60.86;100763.69;5094674;28;20283;-72
2023/12/26 15:29:55;;;;;;;;;;;;;;;11.07;60.95;100773.22;5095644;28;19982;-72
2023/12/26 15:32:58;;;;;;;;;;;;;;;11.05;60.26;100778.56;5093318;28;20009;-72
2023/12/26 15:36:02;;;;;;;;;;;;;;;10.91;60.32;100781.00;5081225;28;19919;-72
2023/12/26 15:39:06;;;;;;;;;;;;;;;10.88;60.13;100782.00;5094094;28;20381;-72
2023/12/26 15:42:09;;;;;;;;;;;;;;;11.01;60.40;100797.94;5094557;28;19939;-72
2023/12/26 15:45:12;;;;;;;;;;;;;;;11.09;60.20;100792.31;5094993;28;19956;-72
2023/12/26 15:48:15;;;;;;;;;;;;;;;11.02;60.54;100798.78;5095357;28;19919;-72
2023/12/26 15:51:19;;;;;;;;;;;;;;;10.94;60.42;100802.66;5092931;28;19964;-72
2023/12/26 15:54:23;;;;;;;;;;;;;;;10.80;59.91;100814.69;5093418;28;20310;-73
2023/12/26 15:57:26;;;;;;;;;;;;;;;10.69;60.73;100810.84;5081704;28;20378;-73
2023/12/26 16:00:29;;;;;;;;;;;;;;;10.56;59.84;100822.81;5094097;28;19945;-73